sensor_id;sensor_type;location;lat;lon;timestamp;temperature;humidity
21318;DHT22;10818;50.830;6.524;2023-05-10T00:02:25;14.40;99.90
21318;DHT22;10818;50.830;6.524;2023-05-10T00:07:26;14.30;99.90
21318;DHT22;10818;50.830;6.524;2023-05-10T00:12:26;14.30;99.90
21318;DHT22;10818;50.830;6.524;2023-05-10T00:17:27;14.30;99.90
21318;DHT22;10818;50.830;6.524;2023-05-10T00:22:27;14.30;99.90
21318;DHT22;10818;50.830;6.524;2023-05-10T00:27:28;14.30;99.90
21318;DHT22;10818;50.830;6.524;2023-05-10T00:32:28;14.30;99.90
21318;DHT22;10818;50.830;6.524;2023-05-10T00:37:29;14.20;99.90
21318;DHT22;10818;50.830;6.524;2023-05-10T00:42:29;14.20;99.90
21318;DHT22;10818;50.830;6.524;2023-05-10T00:47:30;14.30;99.90
21318;DHT22;10818;50.830;6.524;2023-05-10T00:52:31;14.30;99.90
21318;DHT22;10818;50.830;6.524;2023-05-10T00:57:32;14.40;99.90
21318;DHT22;10818;50.830;6.524;2023-05-10T01:02:33;14.30;99.90
21318;DHT22;10818;50.830;6.524;2023-05-10T01:07:34;14.40;99.90
21318;DHT22;10818;50.830;6.524;2023-05-10T01:12:35;14.40;99.90
21318;DHT22;10818;50.830;6.524;2023-05-10T01:17:36;14.40;99.90
21318;DHT22;10818;50.830;6.524;2023-05-10T01:33:19;14.30;99.90
21318;DHT22;10818;50.830;6.524;2023-05-10T01:43:19;14.30;99.90
21318;DHT22;10818;50.830;6.524;2023-05-10T01:48:21;14.20;99.90
21318;DHT22;10818;50.830;6.524;2023-05-10T01:53:23;14.20;99.90
21318;DHT22;10818;50.830;6.524;2023-05-10T01:58:28;14.30;99.90
21318;DHT22;10818;50.830;6.524;2023-05-10T02:03:29;14.30;99.90
21318;DHT22;10818;50.830;6.524;2023-05-10T02:08:31;14.30;99.90
21318;DHT22;10818;50.830;6.524;2023-05-10T02:13:34;14.40;99.90
21318;DHT22;10818;50.830;6.524;2023-05-10T02:18:36;14.30;99.90
21318;DHT22;10818;50.830;6.524;2023-05-10T02:23:37;14.30;99.90
21318;DHT22;10818;50.830;6.524;2023-05-10T02:28:37;14.40;99.90
21318;DHT22;10818;50.830;6.524;2023-05-10T02:33:38;14.40;99.90
21318;DHT22;10818;50.830;6.524;2023-05-10T02:38:40;14.40;99.90
21318;DHT22;10818;50.830;6.524;2023-05-10T02:43:41;14.40;99.90
21318;DHT22;10818;50.830;6.524;2023-05-10T02:48:42;14.30;99.90
21318;DHT22;10818;50.830;6.524;2023-05-10T02:53:43;14.40;99.90
21318;DHT22;10818;50.830;6.524;2023-05-10T02:58:43;14.30;99.90
21318;DHT22;10818;50.830;6.524;2023-05-10T03:03:44;14.40;99.90
21318;DHT22;10818;50.830;6.524;2023-05-10T03:08:45;14.40;99.90
21318;DHT22;10818;50.830;6.524;2023-05-10T03:13:50;14.40;99.90
21318;DHT22;10818;50.830;6.524;2023-05-10T03:19:16;14.30;99.90
21318;DHT22;10818;50.830;6.524;2023-05-10T03:24:18;14.30;99.90
21318;DHT22;10818;50.830;6.524;2023-05-10T03:29:20;14.20;99.90
21318;DHT22;10818;50.830;6.524;2023-05-10T03:34:24;14.20;99.90
21318;DHT22;10818;50.830;6.524;2023-05-10T03:39:24;14.20;99.90
21318;DHT22;10818;50.830;6.524;2023-05-10T03:44:25;14.10;99.90
21318;DHT22;10818;50.830;6.524;2023-05-10T03:49:25;14.10;99.90
21318;DHT22;10818;50.830;6.524;2023-05-10T03:54:26;14.00;99.90
21318;DHT22;10818;50.830;6.524;2023-05-10T03:59:26;14.00;99.90
21318;DHT22;10818;50.830;6.524;2023-05-10T04:04:27;14.00;99.90
21318;DHT22;10818;50.830;6.524;2023-05-10T04:09:27;14.10;99.90
21318;DHT22;10818;50.830;6.524;2023-05-10T04:14:28;14.00;99.90
21318;DHT22;10818;50.830;6.524;2023-05-10T04:19:28;14.00;99.90
21318;DHT22;10818;50.830;6.524;2023-05-10T04:24:29;14.00;99.90
21318;DHT22;10818;50.830;6.524;2023-05-10T04:29:29;14.00;99.90
21318;DHT22;10818;50.830;6.524;2023-05-10T04:34:30;14.00;99.90
21318;DHT22;10818;50.830;6.524;2023-05-10T04:39:30;13.90;99.90
21318;DHT22;10818;50.830;6.524;2023-05-10T04:44:34;14.00;99.90
21318;DHT22;10818;50.830;6.524;2023-05-10T04:49:34;13.90;99.90
21318;DHT22;10818;50.830;6.524;2023-05-10T04:54:35;14.00;99.90
21318;DHT22;10818;50.830;6.524;2023-05-10T04:59:36;14.10;99.90
21318;DHT22;10818;50.830;6.524;2023-05-10T05:04:37;14.20;99.90
21318;DHT22;10818;50.830;6.524;2023-05-10T05:09:37;14.20;99.90
21318;DHT22;10818;50.830;6.524;2023-05-10T05:14:38;14.20;99.90
21318;DHT22;10818;50.830;6.524;2023-05-10T05:19:38;14.30;99.90
21318;DHT22;10818;50.830;6.524;2023-05-10T05:24:38;14.40;99.90
21318;DHT22;10818;50.830;6.524;2023-05-10T05:29:39;14.50;99.90
21318;DHT22;10818;50.830;6.524;2023-05-10T05:34:39;14.50;99.90
21318;DHT22;10818;50.830;6.524;2023-05-10T05:39:40;14.50;99.90
21318;DHT22;10818;50.830;6.524;2023-05-10T05:44:40;14.50;99.90
21318;DHT22;10818;50.830;6.524;2023-05-10T05:49:41;14.60;99.90
21318;DHT22;10818;50.830;6.524;2023-05-10T05:54:41;14.60;99.90
21318;DHT22;10818;50.830;6.524;2023-05-10T05:59:41;14.40;99.90
21318;DHT22;10818;50.830;6.524;2023-05-10T06:04:44;14.40;99.90
21318;DHT22;10818;50.830;6.524;2023-05-10T06:09:44;14.50;99.90
21318;DHT22;10818;50.830;6.524;2023-05-10T06:14:45;14.50;99.90
21318;DHT22;10818;50.830;6.524;2023-05-10T06:19:45;14.60;99.90
21318;DHT22;10818;50.830;6.524;2023-05-10T06:24:46;14.60;99.90
21318;DHT22;10818;50.830;6.524;2023-05-10T06:29:47;14.60;99.90
21318;DHT22;10818;50.830;6.524;2023-05-10T06:34:47;14.70;99.90
21318;DHT22;10818;50.830;6.524;2023-05-10T06:39:48;15.00;99.90
21318;DHT22;10818;50.830;6.524;2023-05-10T06:44:48;15.30;99.90
21318;DHT22;10818;50.830;6.524;2023-05-10T06:49:49;15.60;99.90
21318;DHT22;10818;50.830;6.524;2023-05-10T06:54:49;15.80;99.90
21318;DHT22;10818;50.830;6.524;2023-05-10T06:59:53;15.70;99.90
21318;DHT22;10818;50.830;6.524;2023-05-10T07:04:53;15.70;99.90
21318;DHT22;10818;50.830;6.524;2023-05-10T07:09:54;15.90;99.90
21318;DHT22;10818;50.830;6.524;2023-05-10T07:14:56;15.90;99.90
21318;DHT22;10818;50.830;6.524;2023-05-10T07:19:57;16.50;99.90
21318;DHT22;10818;50.830;6.524;2023-05-10T07:24:58;17.30;99.90
21318;DHT22;10818;50.830;6.524;2023-05-10T07:29:58;17.70;99.90
21318;DHT22;10818;50.830;6.524;2023-05-10T07:34:59;17.60;99.90
21318;DHT22;10818;50.830;6.524;2023-05-10T07:39:59;17.20;99.90
21318;DHT22;10818;50.830;6.524;2023-05-10T07:45:00;17.30;99.90
21318;DHT22;10818;50.830;6.524;2023-05-10T07:50:00;17.10;99.90
21318;DHT22;10818;50.830;6.524;2023-05-10T07:55:01;16.50;99.90
21318;DHT22;10818;50.830;6.524;2023-05-10T08:00:02;16.20;99.90
21318;DHT22;10818;50.830;6.524;2023-05-10T08:05:02;16.10;99.90
21318;DHT22;10818;50.830;6.524;2023-05-10T08:10:04;16.30;99.90
21318;DHT22;10818;50.830;6.524;2023-05-10T08:15:05;16.80;99.90
21318;DHT22;10818;50.830;6.524;2023-05-10T08:20:05;17.00;99.90
21318;DHT22;10818;50.830;6.524;2023-05-10T08:25:07;17.20;99.90
21318;DHT22;10818;50.830;6.524;2023-05-10T08:30:08;17.40;99.90
21318;DHT22;10818;50.830;6.524;2023-05-10T08:35:09;17.90;99.90
21318;DHT22;10818;50.830;6.524;2023-05-10T08:40:09;17.60;99.90
21318;DHT22;10818;50.830;6.524;2023-05-10T08:45:11;17.50;99.90
21318;DHT22;10818;50.830;6.524;2023-05-10T08:50:12;17.80;99.90
21318;DHT22;10818;50.830;6.524;2023-05-10T08:55:13;18.20;99.90
21318;DHT22;10818;50.830;6.524;2023-05-10T09:00:15;18.40;99.90
21318;DHT22;10818;50.830;6.524;2023-05-10T09:05:16;18.90;99.90
21318;DHT22;10818;50.830;6.524;2023-05-10T09:10:18;19.50;99.90
21318;DHT22;10818;50.830;6.524;2023-05-10T09:15:18;20.10;99.90
21318;DHT22;10818;50.830;6.524;2023-05-10T09:20:20;19.50;99.90
21318;DHT22;10818;50.830;6.524;2023-05-10T09:25:20;18.80;99.90
21318;DHT22;10818;50.830;6.524;2023-05-10T09:35:23;17.80;99.90
21318;DHT22;10818;50.830;6.524;2023-05-10T09:40:25;17.80;99.90
21318;DHT22;10818;50.830;6.524;2023-05-10T09:45:26;18.30;99.90
21318;DHT22;10818;50.830;6.524;2023-05-10T09:50:27;18.80;99.90
21318;DHT22;10818;50.830;6.524;2023-05-10T09:55:41;19.00;99.90
21318;DHT22;10818;50.830;6.524;2023-05-10T10:00:42;19.00;99.90
21318;DHT22;10818;50.830;6.524;2023-05-10T10:05:43;18.80;99.90
21318;DHT22;10818;50.830;6.524;2023-05-10T10:10:44;18.40;99.90
21318;DHT22;10818;50.830;6.524;2023-05-10T10:15:46;18.40;99.90
21318;DHT22;10818;50.830;6.524;2023-05-10T10:20:51;18.50;99.90
21318;DHT22;10818;50.830;6.524;2023-05-10T10:25:52;19.00;99.90
21318;DHT22;10818;50.830;6.524;2023-05-10T10:30:54;19.50;99.90
21318;DHT22;10818;50.830;6.524;2023-05-10T10:35:55;19.30;99.90
21318;DHT22;10818;50.830;6.524;2023-05-10T10:41:11;19.80;99.90
21318;DHT22;10818;50.830;6.524;2023-05-10T10:46:26;20.30;99.90
21318;DHT22;10818;50.830;6.524;2023-05-10T10:51:28;20.40;99.90
21318;DHT22;10818;50.830;6.524;2023-05-10T10:56:28;20.30;99.90
21318;DHT22;10818;50.830;6.524;2023-05-10T11:01:32;20.20;99.90
21318;DHT22;10818;50.830;6.524;2023-05-10T11:06:34;20.10;99.90
21318;DHT22;10818;50.830;6.524;2023-05-10T11:11:35;20.30;99.90
21318;DHT22;10818;50.830;6.524;2023-05-10T11:16:42;20.40;99.90
21318;DHT22;10818;50.830;6.524;2023-05-10T11:26:55;20.70;99.90
21318;DHT22;10818;50.830;6.524;2023-05-10T11:31:57;21.40;99.90
21318;DHT22;10818;50.830;6.524;2023-05-10T11:36:57;21.10;99.90
21318;DHT22;10818;50.830;6.524;2023-05-10T11:41:58;21.00;99.90
21318;DHT22;10818;50.830;6.524;2023-05-10T11:46:59;20.80;99.90
21318;DHT22;10818;50.830;6.524;2023-05-10T11:52:03;21.20;99.90
21318;DHT22;10818;50.830;6.524;2023-05-10T11:57:04;21.60;99.90
21318;DHT22;10818;50.830;6.524;2023-05-10T12:02:04;21.10;99.90
21318;DHT22;10818;50.830;6.524;2023-05-10T12:07:05;20.10;99.90
21318;DHT22;10818;50.830;6.524;2023-05-10T12:12:05;19.50;99.90
21318;DHT22;10818;50.830;6.524;2023-05-10T12:17:06;19.10;99.90
21318;DHT22;10818;50.830;6.524;2023-05-10T12:22:06;18.90;99.90
21318;DHT22;10818;50.830;6.524;2023-05-10T12:27:10;19.00;99.90
21318;DHT22;10818;50.830;6.524;2023-05-10T12:32:12;19.70;99.90
21318;DHT22;10818;50.830;6.524;2023-05-10T12:37:12;20.20;99.90
21318;DHT22;10818;50.830;6.524;2023-05-10T12:42:13;20.70;99.90
21318;DHT22;10818;50.830;6.524;2023-05-10T12:47:13;20.70;99.90
21318;DHT22;10818;50.830;6.524;2023-05-10T12:52:14;20.90;99.90
21318;DHT22;10818;50.830;6.524;2023-05-10T12:57:14;20.80;99.90
21318;DHT22;10818;50.830;6.524;2023-05-10T13:02:15;21.00;99.90
21318;DHT22;10818;50.830;6.524;2023-05-10T13:07:15;21.00;99.90
21318;DHT22;10818;50.830;6.524;2023-05-10T13:12:16;20.40;99.90
21318;DHT22;10818;50.830;6.524;2023-05-10T13:17:16;20.30;99.90
21318;DHT22;10818;50.830;6.524;2023-05-10T13:22:17;20.40;99.90
21318;DHT22;10818;50.830;6.524;2023-05-10T13:27:17;20.30;99.90
21318;DHT22;10818;50.830;6.524;2023-05-10T13:32:18;20.20;99.90
21318;DHT22;10818;50.830;6.524;2023-05-10T13:37:18;20.70;99.90
21318;DHT22;10818;50.830;6.524;2023-05-10T13:42:19;21.10;99.90
21318;DHT22;10818;50.830;6.524;2023-05-10T13:47:19;21.30;99.90
21318;DHT22;10818;50.830;6.524;2023-05-10T13:52:21;21.50;99.90
21318;DHT22;10818;50.830;6.524;2023-05-10T13:57:22;21.60;99.90
21318;DHT22;10818;50.830;6.524;2023-05-10T14:02:24;21.60;99.90
21318;DHT22;10818;50.830;6.524;2023-05-10T14:07:24;21.30;99.90
21318;DHT22;10818;50.830;6.524;2023-05-10T14:12:25;21.40;99.90
21318;DHT22;10818;50.830;6.524;2023-05-10T14:17:25;21.20;99.90
21318;DHT22;10818;50.830;6.524;2023-05-10T14:22:26;21.20;99.90
21318;DHT22;10818;50.830;6.524;2023-05-10T14:27:26;20.90;99.90
21318;DHT22;10818;50.830;6.524;2023-05-10T14:32:27;20.80;99.90
21318;DHT22;10818;50.830;6.524;2023-05-10T14:37:28;20.50;99.90
21318;DHT22;10818;50.830;6.524;2023-05-10T14:42:28;20.00;99.90
21318;DHT22;10818;50.830;6.524;2023-05-10T14:47:29;19.80;99.90
21318;DHT22;10818;50.830;6.524;2023-05-10T14:52:30;19.70;99.90
21318;DHT22;10818;50.830;6.524;2023-05-10T14:57:31;19.70;99.90
21318;DHT22;10818;50.830;6.524;2023-05-10T15:02:32;19.80;99.90
21318;DHT22;10818;50.830;6.524;2023-05-10T15:07:32;19.80;99.90
21318;DHT22;10818;50.830;6.524;2023-05-10T15:12:33;19.90;99.90
21318;DHT22;10818;50.830;6.524;2023-05-10T15:17:33;19.80;99.90
21318;DHT22;10818;50.830;6.524;2023-05-10T15:22:34;19.50;99.90
21318;DHT22;10818;50.830;6.524;2023-05-10T15:27:35;19.60;99.90
21318;DHT22;10818;50.830;6.524;2023-05-10T15:32:35;19.70;99.90
21318;DHT22;10818;50.830;6.524;2023-05-10T15:37:36;19.60;99.90
21318;DHT22;10818;50.830;6.524;2023-05-10T15:42:36;19.60;99.90
21318;DHT22;10818;50.830;6.524;2023-05-10T15:47:37;19.50;99.90
21318;DHT22;10818;50.830;6.524;2023-05-10T15:52:39;19.40;99.90
21318;DHT22;10818;50.830;6.524;2023-05-10T15:57:40;19.30;99.90
21318;DHT22;10818;50.830;6.524;2023-05-10T16:02:41;19.20;99.90
21318;DHT22;10818;50.830;6.524;2023-05-10T16:07:42;19.30;99.90
21318;DHT22;10818;50.830;6.524;2023-05-10T16:12:42;19.40;99.90
21318;DHT22;10818;50.830;6.524;2023-05-10T16:17:42;19.50;99.90
21318;DHT22;10818;50.830;6.524;2023-05-10T16:22:43;19.50;99.90
21318;DHT22;10818;50.830;6.524;2023-05-10T16:27:43;19.30;99.90
21318;DHT22;10818;50.830;6.524;2023-05-10T16:32:44;18.90;99.90
21318;DHT22;10818;50.830;6.524;2023-05-10T16:37:44;18.90;99.90
21318;DHT22;10818;50.830;6.524;2023-05-10T16:42:45;18.80;99.90
21318;DHT22;10818;50.830;6.524;2023-05-10T16:47:45;18.70;99.90
21318;DHT22;10818;50.830;6.524;2023-05-10T16:52:46;18.60;99.90
21318;DHT22;10818;50.830;6.524;2023-05-10T16:57:47;18.60;99.90
21318;DHT22;10818;50.830;6.524;2023-05-10T17:02:47;18.60;99.90
21318;DHT22;10818;50.830;6.524;2023-05-10T17:07:48;18.50;99.90
21318;DHT22;10818;50.830;6.524;2023-05-10T17:12:49;18.30;99.90
21318;DHT22;10818;50.830;6.524;2023-05-10T17:17:50;18.40;99.90
21318;DHT22;10818;50.830;6.524;2023-05-10T17:22:51;18.40;99.90
21318;DHT22;10818;50.830;6.524;2023-05-10T17:27:51;18.40;99.90
21318;DHT22;10818;50.830;6.524;2023-05-10T17:32:51;18.20;99.90
21318;DHT22;10818;50.830;6.524;2023-05-10T17:37:53;17.90;99.90
21318;DHT22;10818;50.830;6.524;2023-05-10T17:42:53;17.70;99.90
21318;DHT22;10818;50.830;6.524;2023-05-10T17:47:54;17.70;99.90
21318;DHT22;10818;50.830;6.524;2023-05-10T17:52:54;17.50;99.90
21318;DHT22;10818;50.830;6.524;2023-05-10T17:57:55;17.50;99.90
21318;DHT22;10818;50.830;6.524;2023-05-10T18:02:58;17.60;99.90
21318;DHT22;10818;50.830;6.524;2023-05-10T18:07:59;17.40;99.90
21318;DHT22;10818;50.830;6.524;2023-05-10T18:12:59;17.20;99.90
21318;DHT22;10818;50.830;6.524;2023-05-10T18:18:01;17.30;99.90
21318;DHT22;10818;50.830;6.524;2023-05-10T18:23:02;17.10;99.90
21318;DHT22;10818;50.830;6.524;2023-05-10T18:28:03;16.90;99.90
21318;DHT22;10818;50.830;6.524;2023-05-10T18:33:03;16.70;99.90
21318;DHT22;10818;50.830;6.524;2023-05-10T18:38:04;16.80;99.90
21318;DHT22;10818;50.830;6.524;2023-05-10T18:43:05;16.60;99.90
21318;DHT22;10818;50.830;6.524;2023-05-10T18:48:05;16.60;99.90
21318;DHT22;10818;50.830;6.524;2023-05-10T18:53:06;16.60;99.90
21318;DHT22;10818;50.830;6.524;2023-05-10T18:58:07;16.40;99.90
21318;DHT22;10818;50.830;6.524;2023-05-10T19:03:08;16.40;99.90
21318;DHT22;10818;50.830;6.524;2023-05-10T19:08:08;16.30;99.90
21318;DHT22;10818;50.830;6.524;2023-05-10T19:13:09;16.30;99.90
21318;DHT22;10818;50.830;6.524;2023-05-10T19:18:09;16.30;99.90
21318;DHT22;10818;50.830;6.524;2023-05-10T19:23:10;16.00;99.90
21318;DHT22;10818;50.830;6.524;2023-05-10T19:28:12;15.80;99.90
21318;DHT22;10818;50.830;6.524;2023-05-10T19:33:12;15.60;99.90
21318;DHT22;10818;50.830;6.524;2023-05-10T19:38:13;15.40;99.90
21318;DHT22;10818;50.830;6.524;2023-05-10T19:43:13;15.20;99.90
21318;DHT22;10818;50.830;6.524;2023-05-10T19:48:14;15.30;99.90
21318;DHT22;10818;50.830;6.524;2023-05-10T19:53:14;15.20;99.90
21318;DHT22;10818;50.830;6.524;2023-05-10T19:58:15;15.00;99.90
21318;DHT22;10818;50.830;6.524;2023-05-10T20:03:15;14.80;99.90
21318;DHT22;10818;50.830;6.524;2023-05-10T20:08:16;14.80;99.90
21318;DHT22;10818;50.830;6.524;2023-05-10T20:13:16;14.70;99.90
21318;DHT22;10818;50.830;6.524;2023-05-10T20:18:17;14.80;99.90
21318;DHT22;10818;50.830;6.524;2023-05-10T20:23:17;14.90;99.90
21318;DHT22;10818;50.830;6.524;2023-05-10T20:28:19;14.80;99.90
21318;DHT22;10818;50.830;6.524;2023-05-10T20:33:20;14.80;99.90
21318;DHT22;10818;50.830;6.524;2023-05-10T20:38:21;14.90;99.90
21318;DHT22;10818;50.830;6.524;2023-05-10T20:43:21;14.70;99.90
21318;DHT22;10818;50.830;6.524;2023-05-10T20:48:22;14.80;99.90
21318;DHT22;10818;50.830;6.524;2023-05-10T20:53:22;14.70;99.90
21318;DHT22;10818;50.830;6.524;2023-05-10T20:58:23;14.80;99.90
21318;DHT22;10818;50.830;6.524;2023-05-10T21:03:23;14.70;99.90
21318;DHT22;10818;50.830;6.524;2023-05-10T21:08:24;14.70;99.90
21318;DHT22;10818;50.830;6.524;2023-05-10T21:13:24;14.80;99.90
21318;DHT22;10818;50.830;6.524;2023-05-10T21:18:25;14.70;99.90
21318;DHT22;10818;50.830;6.524;2023-05-10T21:23:25;14.60;99.90
21318;DHT22;10818;50.830;6.524;2023-05-10T21:28:26;14.50;99.90
21318;DHT22;10818;50.830;6.524;2023-05-10T21:33:26;14.60;99.90
21318;DHT22;10818;50.830;6.524;2023-05-10T21:38:27;14.40;99.90
21318;DHT22;10818;50.830;6.524;2023-05-10T21:43:27;14.40;99.90
21318;DHT22;10818;50.830;6.524;2023-05-10T21:48:27;14.30;99.90
21318;DHT22;10818;50.830;6.524;2023-05-10T21:53:28;14.30;99.90
21318;DHT22;10818;50.830;6.524;2023-05-10T21:58:28;14.30;99.90
21318;DHT22;10818;50.830;6.524;2023-05-10T22:03:29;14.30;99.90
21318;DHT22;10818;50.830;6.524;2023-05-10T22:08:29;14.20;99.90
21318;DHT22;10818;50.830;6.524;2023-05-10T22:13:30;14.20;99.90
21318;DHT22;10818;50.830;6.524;2023-05-10T22:18:30;14.20;99.90
21318;DHT22;10818;50.830;6.524;2023-05-10T22:23:31;14.20;99.90
21318;DHT22;10818;50.830;6.524;2023-05-10T22:28:31;14.10;99.90
21318;DHT22;10818;50.830;6.524;2023-05-10T22:33:32;14.10;99.90
21318;DHT22;10818;50.830;6.524;2023-05-10T22:38:32;14.20;99.90
21318;DHT22;10818;50.830;6.524;2023-05-10T22:43:33;14.10;99.90
21318;DHT22;10818;50.830;6.524;2023-05-10T22:48:33;14.10;99.90
21318;DHT22;10818;50.830;6.524;2023-05-10T22:53:34;14.10;99.90
21318;DHT22;10818;50.830;6.524;2023-05-10T22:58:35;14.00;99.90
21318;DHT22;10818;50.830;6.524;2023-05-10T23:03:35;14.00;99.90
21318;DHT22;10818;50.830;6.524;2023-05-10T23:08:36;14.00;99.90
21318;DHT22;10818;50.830;6.524;2023-05-10T23:13:36;13.90;99.90
21318;DHT22;10818;50.830;6.524;2023-05-10T23:18:37;13.80;99.90
21318;DHT22;10818;50.830;6.524;2023-05-10T23:23:38;13.60;99.90
21318;DHT22;10818;50.830;6.524;2023-05-10T23:28:39;13.70;99.90
21318;DHT22;10818;50.830;6.524;2023-05-10T23:33:39;13.60;99.90
21318;DHT22;10818;50.830;6.524;2023-05-10T23:38:40;13.50;99.90
21318;DHT22;10818;50.830;6.524;2023-05-10T23:43:40;13.50;99.90
21318;DHT22;10818;50.830;6.524;2023-05-10T23:48:41;13.70;99.90
21318;DHT22;10818;50.830;6.524;2023-05-10T23:53:42;13.60;99.90
21318;DHT22;10818;50.830;6.524;2023-05-10T23:58:42;13.30;99.90
